Time;durP1;ratioP1;P1;durP2;ratioP2;P2;SDS_P1;SDS_P2;PMS_P1;PMS_P2;Temp;Humidity;BMP_temperature;BMP_pressure;BME280_temperature;BME280_humidity;BME280_pressure;Samples;Min_cycle;Max_cycle;Signal;HPM_P1;HPM_P2
2023/04/15 05:35:47;;;;;;;2.80;1.60;;;22.50;70.30;;;;;;6311230;27;87567;-96
2023/04/15 05:42:06;;;;;;;2.00;1.60;;;22.50;70.20;;;;;;6297768;27;89655;-96
2023/04/15 05:51:47;;;;;;;1.70;1.60;;;22.50;70.10;;;;;;6288098;27;89684;-96
2023/04/15 06:04:39;;;;;;;1.60;1.50;;;22.50;70.00;;;;;;6301712;27;89601;-96
2023/04/15 06:26:31;;;;;;;2.00;1.58;;;22.60;69.80;;;;;;6300076;27;89534;-95
2023/04/15 06:42:39;;;;;;;1.98;1.77;;;22.70;69.80;;;;;;6294484;27;89144;-95
2023/04/15 06:55:31;;;;;;;1.70;1.60;;;22.70;69.90;;;;;;6291973;27;90291;-96
2023/04/15 07:02:49;;;;;;;2.22;1.95;;;22.70;70.00;;;;;;6295347;27;89649;-95
2023/04/15 07:06:06;;;;;;;2.83;1.90;;;22.70;70.00;;;;;;6288562;27;89064;-96
2023/04/15 07:18:57;;;;;;;2.83;1.80;;;22.80;70.20;;;;;;6302264;27;89875;-95
2023/04/15 07:25:47;;;;;;;2.05;1.88;;;22.80;70.10;;;;;;6304307;27;89374;-95
2023/04/15 07:29:01;;;;;;;2.10;1.90;;;22.80;70.10;;;;;;6296069;27;90135;-95
2023/04/15 07:32:03;;;;;;;2.00;1.80;;;22.90;70.20;;;;;;6301790;27;88477;-94
2023/04/15 07:38:22;;;;;;;2.85;1.83;;;22.90;70.10;;;;;;6297540;27;89386;-96
2023/04/15 07:41:26;;;;;;;2.30;1.98;;;22.90;70.00;;;;;;6294415;27;89785;-95
2023/04/15 07:44:28;;;;;;;2.70;1.90;;;22.90;69.80;;;;;;6301328;27;89432;-95
2023/04/15 07:54:05;;;;;;;8.60;2.05;;;22.90;69.80;;;;;;6302625;27;89492;-95
2023/04/15 08:05:01;;;;;;;2.17;1.98;;;22.90;69.80;;;;;;6305297;27;89518;-96
2023/04/15 08:14:46;;;;;;;2.50;2.03;;;23.00;69.80;;;;;;6305363;27;88347;-95
2023/04/15 08:28:38;;;;;;;2.80;1.95;;;23.00;69.90;;;;;;6302473;27;90548;-96
2023/04/15 08:31:40;;;;;;;2.25;1.95;;;23.00;69.80;;;;;;6289374;27;89300;-96
2023/04/15 08:41:22;;;;;;;2.00;1.60;;;23.00;69.90;;;;;;6302684;27;89329;-96
2023/04/15 09:00:15;;;;;;;2.40;2.00;;;23.00;69.90;;;;;;6302276;27;90433;-96
2023/04/15 09:03:23;;;;;;;2.38;1.77;;;23.10;70.10;;;;;;6297608;27;89044;-96
2023/04/15 09:06:30;;;;;;;2.78;1.90;;;23.10;70.10;;;;;;6300996;27;90279;-96
2023/04/15 09:12:48;;;;;;;3.70;2.47;;;23.10;71.10;;;;;;6296823;22;90488;-71
2023/04/15 09:15:51;;;;;;;19.90;15.27;;;23.10;73.30;;;;;;6255849;28;89127;-70
2023/04/15 09:18:54;;;;;;;185.07;136.57;;;23.10;73.30;;;;;;6255225;28;90774;-73
2023/04/15 09:21:58;;;;;;;61.15;44.33;;;23.10;72.00;;;;;;6253967;28;88504;-70
2023/04/15 09:25:00;;;;;;;32.95;27.38;;;23.20;73.00;;;;;;6251355;28;89173;-70
2023/04/15 09:28:02;;;;;;;30.60;22.77;;;23.20;71.20;;;;;;6254842;28;88941;-70
2023/04/15 09:31:04;;;;;;;25.92;19.98;;;23.20;70.60;;;;;;6253915;28;90158;-70
2023/04/15 09:34:08;;;;;;;26.95;19.02;;;23.20;70.30;;;;;;6254162;28;89043;-70
2023/04/15 09:37:12;;;;;;;22.17;18.08;;;23.20;70.30;;;;;;6255727;28;89607;-71
2023/04/15 09:40:14;;;;;;;21.20;17.08;;;23.20;70.10;;;;;;6252843;27;89443;-70
2023/04/15 09:43:16;;;;;;;23.10;16.92;;;23.20;70.10;;;;;;6253705;28;88666;-69
2023/04/15 09:46:19;;;;;;;20.85;15.75;;;23.20;70.10;;;;;;6251068;28;89089;-69
2023/04/15 09:49:22;;;;;;;19.38;15.13;;;23.20;70.10;;;;;;6254685;28;89066;-69
2023/04/15 09:52:24;;;;;;;20.23;14.50;;;23.20;70.10;;;;;;6251689;28;88231;-69
2023/04/15 09:55:26;;;;;;;16.90;14.32;;;23.20;70.80;;;;;;6250577;27;88053;-69
2023/04/15 09:59:02;;;;;;;19.50;14.23;;;23.20;70.90;;;;;;6246931;27;89167;-70
2023/04/15 10:02:06;;;;;;;16.48;13.07;;;23.20;70.90;;;;;;6251993;27;90124;-69
2023/04/15 10:05:11;;;;;;;16.75;12.02;;;23.30;71.00;;;;;;6236431;28;88027;-69
2023/04/15 10:08:14;;;;;;;14.77;11.40;;;23.30;71.00;;;;;;6252500;27;88975;-70
2023/04/15 10:11:18;;;;;;;15.48;10.70;;;23.30;70.90;;;;;;6253323;27;87968;-70
2023/04/15 10:14:21;;;;;;;13.13;9.93;;;23.30;70.80;;;;;;6253341;27;89064;-69
2023/04/15 10:17:27;;;;;;;12.50;9.10;;;23.30;70.80;;;;;;6254628;27;89254;-69
2023/04/15 10:20:31;;;;;;;12.45;9.13;;;23.30;70.60;;;;;;6255129;27;89134;-69
2023/04/15 10:23:33;;;;;;;11.48;8.52;;;23.30;70.50;;;;;;6255009;28;88356;-69
2023/04/15 10:26:36;;;;;;;10.48;8.30;;;23.30;70.50;;;;;;6249792;28;89436;-69
2023/04/15 10:29:38;;;;;;;11.07;7.78;;;23.30;70.50;;;;;;6255218;28;88183;-69
2023/04/15 10:32:41;;;;;;;10.90;7.85;;;23.30;70.50;;;;;;6254528;28;90080;-69
2023/04/15 10:35:46;;;;;;;9.02;6.97;;;23.30;70.50;;;;;;6254157;28;89037;-69
2023/04/15 10:38:48;;;;;;;9.20;6.70;;;23.30;70.50;;;;;;6253132;28;88288;-69
2023/04/15 10:42:07;;;;;;;8.57;6.57;;;23.30;70.50;;;;;;6253733;28;89119;-70
2023/04/15 10:45:17;;;;;;;8.80;6.25;;;23.30;70.60;;;;;;6250200;27;87961;-69
2023/04/15 10:48:19;;;;;;;8.27;5.68;;;23.30;70.50;;;;;;6251151;27;90234;-71
2023/04/15 10:51:30;;;;;;;10.68;5.32;;;23.30;70.50;;;;;;6255088;27;89051;-70
2023/04/15 10:54:35;;;;;;;6.25;5.25;;;23.30;70.40;;;;;;6252739;28;89621;-69
2023/04/15 10:57:39;;;;;;;7.15;4.82;;;23.30;70.50;;;;;;6258870;28;89506;-68
2023/04/15 11:00:51;;;;;;;6.03;4.47;;;23.30;70.60;;;;;;6257593;28;89027;-69
2023/04/15 11:03:55;;;;;;;6.63;4.30;;;23.30;70.60;;;;;;6258208;28;89906;-71
2023/04/15 11:07:07;;;;;;;9.07;5.35;;;23.30;70.50;;;;;;6257094;28;88769;-70
2023/04/15 11:10:53;;;;;;;9.77;5.38;;;23.30;70.50;;;;;;6256385;28;89254;-69
2023/04/15 11:13:57;;;;;;;7.47;4.35;;;23.30;70.50;;;;;;6257973;28;89366;-69
2023/04/15 11:16:59;;;;;;;8.02;5.00;;;23.30;70.20;;;;;;6258979;28;89029;-70
2023/04/15 11:20:01;;;;;;;8.27;4.75;;;23.20;70.10;;;;;;6258659;28;89018;-70
2023/04/15 11:23:05;;;;;;;8.75;4.35;;;23.30;70.10;;;;;;6252281;28;89062;-69
2023/04/15 11:26:10;;;;;;;10.38;4.35;;;23.20;70.10;;;;;;6258317;28;88474;-69
2023/04/15 11:29:17;;;;;;;8.70;4.32;;;23.20;70.00;;;;;;6258536;28;89102;-69
2023/04/15 11:32:22;;;;;;;7.55;3.60;;;23.20;70.00;;;;;;6258002;28;90431;-70
2023/04/15 11:35:24;;;;;;;5.72;3.88;;;23.20;69.80;;;;;;6256402;28;90076;-70
2023/04/15 11:38:27;;;;;;;5.70;3.60;;;23.20;69.90;;;;;;6257901;28;88022;-70
2023/04/15 11:41:29;;;;;;;6.75;3.45;;;23.20;69.80;;;;;;6258638;28;89090;-70
2023/04/15 11:44:31;;;;;;;6.00;3.47;;;23.20;69.70;;;;;;6257218;28;92398;-70
2023/04/15 11:47:33;;;;;;;6.53;3.03;;;23.30;69.70;;;;;;6255205;27;88773;-70
2023/04/15 11:50:36;;;;;;;5.50;3.20;;;23.20;69.60;;;;;;6257429;28;89074;-70
2023/04/15 11:53:43;;;;;;;7.20;3.17;;;23.20;69.60;;;;;;6258373;28;89098;-69
2023/04/15 11:56:51;;;;;;;8.27;2.83;;;23.20;70.50;;;;;;6258122;27;88425;-69
2023/04/15 11:59:55;;;;;;;7.95;2.85;;;23.20;69.60;;;;;;6251149;28;89067;-69
2023/04/15 12:03:12;;;;;;;7.00;3.20;;;23.20;69.60;;;;;;6256374;27;89067;-69
2023/04/15 12:06:18;;;;;;;5.82;2.90;;;23.20;69.60;;;;;;6244198;28;89990;-69
2023/04/15 12:09:21;;;;;;;5.25;2.53;;;23.20;69.50;;;;;;6257045;27;89115;-69
2023/04/15 12:12:27;;;;;;;7.95;2.90;;;23.20;69.50;;;;;;6257240;28;89221;-69
2023/04/15 12:15:29;;;;;;;5.55;2.70;;;23.20;69.40;;;;;;6256844;28;89351;-69
2023/04/15 12:18:31;;;;;;;4.15;2.40;;;23.10;69.40;;;;;;6256325;28;89256;-70
2023/04/15 12:21:36;;;;;;;5.90;2.40;;;23.20;69.40;;;;;;6256425;28;89072;-70
2023/04/15 12:24:41;;;;;;;6.95;2.53;;;23.10;69.40;;;;;;6255206;28;90439;-69
2023/04/15 12:27:52;;;;;;;7.10;2.35;;;23.10;69.40;;;;;;6245824;28;88432;-69
2023/04/15 12:30:54;;;;;;;5.07;2.30;;;23.10;69.40;;;;;;6256478;28;89028;-69
2023/04/15 12:33:56;;;;;;;2.55;2.13;;;23.10;69.40;;;;;;6246028;28;89055;-69
2023/04/15 12:36:59;;;;;;;2.92;1.92;;;23.10;69.30;;;;;;6256166;28;89867;-70
2023/04/15 12:40:03;;;;;;;3.95;2.20;;;23.10;69.30;;;;;;6256657;28;89037;-70
2023/04/15 12:43:05;;;;;;;4.03;2.10;;;23.20;69.30;;;;;;6255910;28;89068;-70
2023/04/15 12:46:07;;;;;;;3.13;2.20;;;23.20;69.30;;;;;;6254960;28;89032;-70
2023/04/15 12:49:09;;;;;;;2.42;1.85;;;23.20;69.20;;;;;;6254649;28;88976;-70
2023/04/15 12:52:11;;;;;;;3.53;2.03;;;23.20;69.20;;;;;;6256214;28;89011;-70
2023/04/15 12:55:15;;;;;;;3.58;1.83;;;23.10;69.10;;;;;;6256144;28;89069;-70
2023/04/15 12:58:17;;;;;;;2.20;1.70;;;23.20;69.20;;;;;;6257132;28;88704;-70
2023/04/15 13:01:19;;;;;;;3.58;1.77;;;23.10;68.90;;;;;;6246735;28;89265;-70
2023/04/15 13:04:22;;;;;;;4.72;2.00;;;23.20;69.10;;;;;;6251467;28;89053;-70
2023/04/15 13:07:24;;;;;;;3.22;1.80;;;23.10;69.00;;;;;;6251488;28;91454;-71
2023/04/15 13:10:28;;;;;;;2.70;1.80;;;23.10;69.00;;;;;;6256845;28;89308;-70
2023/04/15 13:13:30;;;;;;;3.28;1.75;;;23.10;69.10;;;;;;6243685;28;89121;-70
2023/04/15 13:16:33;;;;;;;3.55;1.90;;;23.10;69.10;;;;;;6255426;27;87902;-70
2023/04/15 13:19:36;;;;;;;4.40;1.70;;;23.20;69.10;;;;;;6256148;28;89501;-72
2023/04/15 13:22:38;;;;;;;2.83;1.77;;;23.10;69.00;;;;;;6255838;28;87676;-70
2023/04/15 13:25:41;;;;;;;2.47;1.75;;;23.10;69.00;;;;;;6251796;28;89210;-71
2023/04/15 13:28:43;;;;;;;4.07;1.70;;;23.20;69.10;;;;;;6256395;28;88575;-70
2023/04/15 13:31:45;;;;;;;3.28;1.63;;;23.10;69.10;;;;;;6255956;28;89214;-70
2023/04/15 13:34:47;;;;;;;3.90;1.63;;;23.20;69.70;;;;;;6253234;28;89244;-71
2023/04/15 13:37:49;;;;;;;3.50;1.92;;;23.20;69.40;;;;;;6253752;27;89965;-71
2023/04/15 13:40:52;;;;;;;4.30;1.77;;;23.10;69.40;;;;;;6250180;28;89259;-71
2023/04/15 13:43:54;;;;;;;2.67;1.70;;;23.20;69.40;;;;;;6255454;28;89029;-69
2023/04/15 13:46:56;;;;;;;4.22;1.65;;;23.20;69.40;;;;;;6253425;28;91566;-71
2023/04/15 13:49:58;;;;;;;2.35;1.40;;;23.20;69.40;;;;;;6254985;28;87964;-70
2023/04/15 13:53:00;;;;;;;2.22;1.63;;;23.20;69.40;;;;;;6245781;28;88077;-70
2023/04/15 13:56:05;;;;;;;3.67;1.83;;;23.20;69.60;;;;;;6254744;28;88012;-69
2023/04/15 13:59:07;;;;;;;4.55;1.50;;;23.20;69.60;;;;;;6243176;27;88616;-70
2023/04/15 14:02:09;;;;;;;4.00;1.60;;;23.20;69.60;;;;;;6255581;27;90480;-70
2023/04/15 14:05:11;;;;;;;2.92;1.40;;;23.20;69.60;;;;;;6252098;27;88975;-70
2023/04/15 14:08:14;;;;;;;4.65;1.65;;;23.20;69.60;;;;;;6251081;27;90049;-69
2023/04/15 14:11:17;;;;;;;3.08;1.58;;;23.20;69.60;;;;;;6248366;27;89159;-70
2023/04/15 14:14:19;;;;;;;2.42;1.30;;;23.20;69.60;;;;;;6251536;27;89062;-70
2023/04/15 14:17:21;;;;;;;4.32;1.58;;;23.20;69.40;;;;;;6251999;27;89143;-70
2023/04/15 14:20:23;;;;;;;4.00;1.50;;;23.20;69.50;;;;;;6243988;27;89201;-70
2023/04/15 14:23:25;;;;;;;3.17;1.50;;;23.20;69.40;;;;;;6250353;27;89151;-70
2023/04/15 14:26:28;;;;;;;2.05;1.33;;;23.20;69.40;;;;;;6251121;27;89149;-71
2023/04/15 14:29:30;;;;;;;2.17;1.38;;;23.20;69.30;;;;;;6257064;28;88355;-69
2023/04/15 14:32:32;;;;;;;9.95;1.60;;;23.20;69.30;;;;;;6257102;28;89493;-70
2023/04/15 14:35:35;;;;;;;2.55;1.45;;;23.10;69.20;;;;;;6256568;28;89463;-70
2023/04/15 14:38:38;;;;;;;2.83;1.60;;;23.20;69.20;;;;;;6255090;28;90078;-71
2023/04/15 14:41:42;;;;;;;3.88;1.65;;;23.10;69.10;;;;;;6256626;28;89391;-70
2023/04/15 14:44:44;;;;;;;4.30;1.60;;;23.20;69.10;;;;;;6254899;27;89081;-70
2023/04/15 14:47:46;;;;;;;2.08;1.40;;;23.20;69.20;;;;;;6251589;28;89116;-69
2023/04/15 14:50:49;;;;;;;2.45;1.35;;;23.20;69.10;;;;;;6254396;28;90944;-70
2023/04/15 14:53:51;;;;;;;2.13;1.45;;;23.20;69.10;;;;;;6256647;28;89086;-72
2023/04/15 14:56:55;;;;;;;1.75;1.45;;;23.20;69.00;;;;;;6255391;28;88053;-71
2023/04/15 14:59:58;;;;;;;2.70;1.50;;;23.20;68.90;;;;;;6256390;28;88259;-70
2023/04/15 15:03:00;;;;;;;4.00;1.50;;;23.20;68.90;;;;;;6243299;28;88811;-70
2023/04/15 15:06:02;;;;;;;2.00;1.30;;;23.20;69.00;;;;;;6246362;27;89137;-70
2023/04/15 15:09:04;;;;;;;1.58;1.48;;;23.20;68.90;;;;;;6250003;28;90045;-70
2023/04/15 15:12:08;;;;;;;2.65;1.60;;;23.20;69.10;;;;;;6252325;28;89222;-69
2023/04/15 15:15:10;;;;;;;1.85;1.50;;;23.20;69.00;;;;;;6252968;28;89089;-70
2023/04/15 15:18:12;;;;;;;2.55;1.30;;;23.20;68.50;;;;;;6256839;28;89432;-70
2023/04/15 15:21:14;;;;;;;3.88;1.50;;;23.20;68.60;;;;;;6257778;28;89060;-71
2023/04/15 15:24:16;;;;;;;4.72;1.50;;;23.20;68.60;;;;;;6257589;28;89010;-69
2023/04/15 15:27:19;;;;;;;2.30;1.35;;;23.20;68.60;;;;;;6256827;28;89308;-70
2023/04/15 15:30:22;;;;;;;1.90;1.38;;;23.20;68.70;;;;;;6249171;28;88346;-70
2023/04/15 15:33:24;;;;;;;2.67;1.48;;;23.20;68.80;;;;;;6255469;28;89228;-71
2023/04/15 15:36:26;;;;;;;2.63;1.45;;;23.20;68.90;;;;;;6249113;28;89048;-70
2023/04/15 15:39:28;;;;;;;1.80;1.35;;;23.20;69.10;;;;;;6247202;28;90112;-70
2023/04/15 15:42:32;;;;;;;3.33;1.30;;;23.20;69.20;;;;;;6257028;28;89111;-69
2023/04/15 15:45:35;;;;;;;2.47;1.65;;;23.20;70.10;;;;;;6252611;28;89064;-69
2023/04/15 15:48:37;;;;;;;2.45;1.60;;;23.20;69.40;;;;;;6258705;28;89398;-69
2023/04/15 15:51:39;;;;;;;3.60;1.52;;;23.20;69.50;;;;;;6257944;28;89177;-70
2023/04/15 15:54:41;;;;;;;3.22;1.60;;;23.20;69.60;;;;;;6251945;27;89816;-70
2023/04/15 15:57:45;;;;;;;2.40;1.20;;;23.20;69.80;;;;;;6258198;28;89020;-70
2023/04/15 16:00:47;;;;;;;2.13;1.45;;;23.20;70.00;;;;;;6257104;27;88391;-69
2023/04/15 16:03:49;;;;;;;2.47;1.52;;;23.20;70.10;;;;;;6256548;28;89389;-70
2023/04/15 16:06:52;;;;;;;2.90;1.50;;;23.20;70.20;;;;;;6249768;28;89204;-70
2023/04/15 16:09:54;;;;;;;1.40;1.30;;;23.20;70.40;;;;;;6255511;28;90077;-70
2023/04/15 16:12:57;;;;;;;3.10;1.60;;;23.20;70.50;;;;;;6256435;27;89050;-69
2023/04/15 16:16:00;;;;;;;1.67;1.30;;;23.20;70.60;;;;;;6256542;27;89150;-69
2023/04/15 16:19:02;;;;;;;2.15;1.40;;;23.20;70.60;;;;;;6252968;27;89030;-70
2023/04/15 16:22:04;;;;;;;2.38;1.58;;;23.20;70.80;;;;;;6257096;28;89412;-70
2023/04/15 16:25:07;;;;;;;4.00;1.50;;;23.20;70.90;;;;;;6254107;28;87153;-70
2023/04/15 16:28:11;;;;;;;2.05;1.40;;;23.20;71.00;;;;;;6256724;28;88559;-72
2023/04/15 16:31:13;;;;;;;2.17;1.40;;;23.20;71.10;;;;;;6257654;28;88857;-70
2023/04/15 16:34:16;;;;;;;3.65;1.58;;;23.20;71.60;;;;;;6256962;28;89350;-68
2023/04/15 16:37:18;;;;;;;5.10;1.75;;;23.20;72.70;;;;;;6256168;28;89503;-71
2023/04/15 16:40:20;;;;;;;5.13;1.52;;;23.20;74.00;;;;;;6248492;28;90061;-72
2023/04/15 16:43:23;;;;;;;3.67;1.63;;;23.10;74.00;;;;;;6255425;28;89388;-72
2023/04/15 16:46:25;;;;;;;4.60;1.83;;;23.10;74.20;;;;;;6255612;28;89065;-82
2023/04/15 16:49:27;;;;;;;5.43;1.80;;;23.10;74.40;;;;;;6255567;27;88439;-78
2023/04/15 16:52:30;;;;;;;3.03;1.60;;;23.10;76.50;;;;;;6256857;28;89293;-80
2023/04/15 16:55:32;;;;;;;5.38;1.83;;;23.10;77.80;;;;;;6256214;28;87869;-83
2023/04/15 16:58:36;;;;;;;4.40;1.65;;;23.10;76.40;;;;;;6252096;27;89079;-77
2023/04/15 17:01:38;;;;;;;6.30;4.50;;;23.10;75.50;;;;;;6252628;27;87482;-77
2023/04/15 17:04:40;;;;;;;4.55;2.92;;;23.00;76.60;;;;;;6255930;28;87995;-77
2023/04/15 17:07:42;;;;;;;5.45;2.30;;;23.10;84.40;;;;;;6238393;28;89370;-78
2023/04/15 17:10:44;;;;;;;3.00;1.73;;;23.10;84.50;;;;;;6252201;27;90321;-78
2023/04/15 17:13:48;;;;;;;5.03;2.13;;;23.20;84.30;;;;;;6253618;28;89090;-77
2023/04/15 17:16:50;;;;;;;3.72;2.40;;;23.20;82.40;;;;;;6254576;28;89101;-74
2023/04/15 17:19:52;;;;;;;3.33;2.60;;;23.30;83.30;;;;;;6254382;28;87899;-78
2023/04/15 17:22:55;;;;;;;4.50;2.45;;;23.40;82.00;;;;;;6254585;28;89052;-78
2023/04/15 17:25:57;;;;;;;5.13;1.80;;;23.50;91.90;;;;;;6254172;28;88103;-79
2023/04/15 17:29:00;;;;;;;2.63;1.70;;;23.60;88.30;;;;;;6252734;28;89155;-77
2023/04/15 17:32:02;;;;;;;4.65;2.00;;;23.70;82.00;;;;;;6250271;27;88383;-82
2023/04/15 17:35:05;;;;;;;4.03;1.67;;;23.60;80.10;;;;;;6255028;27;89078;-82
2023/04/15 17:38:07;;;;;;;4.32;2.38;;;23.70;78.40;;;;;;6255425;28;89054;-77
2023/04/15 17:41:10;;;;;;;8.63;5.97;;;23.70;84.50;;;;;;6254477;28;90065;-77
2023/04/15 17:44:14;;;;;;;13.80;12.00;;;23.80;90.00;;;;;;6255049;28;89504;-76
2023/04/15 17:47:17;;;;;;;31.73;17.83;;;23.90;90.40;;;;;;6233070;28;87074;-78
2023/04/15 17:50:19;;;;;;;646.35;479.15;;;23.90;84.40;;;;;;6254865;28;89042;-82
2023/04/15 17:53:21;;;;;;;764.92;477.88;;;23.90;82.50;;;;;;6253096;28;89029;-76
2023/04/15 17:56:25;;;;;;;951.17;345.20;;;23.90;82.20;;;;;;6252987;27;89452;-77
2023/04/15 17:59:30;;;;;;;345.52;125.72;;;23.90;90.80;;;;;;6251679;27;89071;-82
2023/04/15 18:02:32;;;;;;;164.20;68.15;;;24.00;92.90;;;;;;6254804;28;87364;-73
2023/04/15 18:05:35;;;;;;;128.85;55.25;;;24.00;87.60;;;;;;6244987;28;89043;-79
2023/04/15 18:08:37;;;;;;;141.95;58.40;;;24.00;87.50;;;;;;6254942;28;89062;-76
2023/04/15 18:11:42;;;;;;;135.55;57.92;;;24.00;81.80;;;;;;6242791;27;90029;-80
2023/04/15 18:14:47;;;;;;;123.00;51.40;;;24.20;80.10;;;;;;6250083;27;89510;-77
2023/04/15 18:17:49;;;;;;;109.25;45.63;;;24.40;76.20;;;;;;6249226;27;88328;-82
2023/04/15 18:20:52;;;;;;;105.65;46.10;;;24.50;75.50;;;;;;6252959;27;88050;-80
2023/04/15 18:23:55;;;;;;;87.20;40.10;;;24.60;73.30;;;;;;6251569;28;89433;-77
2023/04/15 18:26:57;;;;;;;80.80;38.50;;;24.50;74.00;;;;;;6246581;28;88375;-75
2023/04/15 18:30:01;;;;;;;81.57;36.75;;;24.50;74.40;;;;;;6235543;28;87758;-77
2023/04/15 18:33:04;;;;;;;73.32;34.88;;;24.40;73.60;;;;;;6246905;28;88390;-78
2023/04/15 18:36:07;;;;;;;73.88;33.00;;;24.30;75.50;;;;;;6253638;28;89609;-75
2023/04/15 18:39:10;;;;;;;53.45;25.55;;;24.30;74.40;;;;;;6249069;28;89124;-73
2023/04/15 18:42:12;;;;;;;48.88;22.27;;;24.20;73.40;;;;;;6245546;28;89178;-73
2023/04/15 18:45:18;;;;;;;33.80;17.02;;;24.10;73.30;;;;;;6249652;28;89086;-74
2023/04/15 18:48:20;;;;;;;28.20;11.10;;;24.00;70.40;;;;;;6243411;28;87965;-80
2023/04/15 18:51:22;;;;;;;20.73;8.55;;;23.90;70.00;;;;;;6245547;27;89098;-79
2023/04/15 18:54:24;;;;;;;15.07;7.30;;;23.80;69.80;;;;;;6243468;28;89208;-79
2023/04/15 18:57:27;;;;;;;12.20;5.28;;;23.70;69.30;;;;;;6247766;28;89535;-81
2023/04/15 19:00:31;;;;;;;12.60;5.10;;;23.70;68.80;;;;;;6252100;28;89213;-79
2023/04/15 19:03:33;;;;;;;14.18;5.13;;;23.60;68.30;;;;;;6229008;28;88483;-75
2023/04/15 19:06:36;;;;;;;8.18;3.20;;;23.60;67.80;;;;;;6238658;28;89037;-74
2023/04/15 19:09:39;;;;;;;11.02;4.70;;;23.60;67.50;;;;;;6250717;28;88069;-75
2023/04/15 19:12:41;;;;;;;15.10;5.65;;;23.50;68.50;;;;;;6251554;27;90249;-76
2023/04/15 19:15:45;;;;;;;8.38;3.67;;;23.60;69.80;;;;;;6256699;28;89057;-74
2023/04/15 19:18:47;;;;;;;9.40;3.42;;;23.60;68.60;;;;;;6245096;28;89570;-73
2023/04/15 19:21:49;;;;;;;8.55;3.92;;;23.60;68.40;;;;;;6255722;28;89018;-74
2023/04/15 19:24:52;;;;;;;10.50;3.60;;;23.60;68.60;;;;;;6250450;28;89582;-76
2023/04/15 19:27:54;;;;;;;9.77;3.80;;;23.70;68.80;;;;;;6250508;28;88133;-71
2023/04/15 19:30:58;;;;;;;7.90;3.50;;;23.70;69.10;;;;;;6256228;28;89105;-73
2023/04/15 19:34:00;;;;;;;9.10;3.88;;;23.70;69.30;;;;;;6258038;28;88773;-72
2023/04/15 19:37:05;;;;;;;8.60;3.53;;;23.70;69.30;;;;;;6254855;28;88190;-73
2023/04/15 19:40:09;;;;;;;10.85;3.85;;;23.70;69.60;;;;;;6255278;28;88121;-74
2023/04/15 19:43:11;;;;;;;9.32;3.70;;;23.70;70.00;;;;;;6253727;28;90185;-74
2023/04/15 19:46:15;;;;;;;14.80;4.93;;;23.60;70.20;;;;;;6255677;28;89073;-77
2023/04/15 19:49:18;;;;;;;11.80;4.75;;;23.60;70.80;;;;;;6254422;28;90133;-77
2023/04/15 19:52:22;;;;;;;14.15;4.57;;;23.60;71.00;;;;;;6236585;28;87902;-76
2023/04/15 19:55:25;;;;;;;9.95;4.45;;;23.60;71.00;;;;;;6254108;28;88000;-73
2023/04/15 19:58:28;;;;;;;12.02;4.25;;;23.60;71.20;;;;;;6255469;28;89393;-71
2023/04/15 20:01:32;;;;;;;12.43;4.50;;;23.60;71.30;;;;;;6254028;28;87985;-76
2023/04/15 20:04:36;;;;;;;10.85;3.95;;;23.60;71.50;;;;;;6253878;28;88728;-73
2023/04/15 20:07:41;;;;;;;10.95;4.57;;;23.60;71.50;;;;;;6248634;28;89203;-78
2023/04/15 20:10:43;;;;;;;9.25;3.83;;;23.60;71.60;;;;;;6257260;28;89357;-78
2023/04/15 20:13:45;;;;;;;11.98;4.13;;;23.60;71.70;;;;;;6256484;28;90051;-77
2023/04/15 20:16:48;;;;;;;11.45;4.35;;;23.60;71.80;;;;;;6245363;28;88928;-77
2023/04/15 20:19:50;;;;;;;10.07;3.83;;;23.60;72.10;;;;;;6256749;28;89167;-77
2023/04/15 20:22:53;;;;;;;9.52;3.92;;;23.60;72.10;;;;;;6255962;28;88811;-76
2023/04/15 20:25:55;;;;;;;10.02;4.10;;;23.60;72.20;;;;;;6243593;27;89065;-77
2023/04/15 20:28:59;;;;;;;11.02;4.40;;;23.50;72.30;;;;;;6256410;27;88266;-80
2023/04/15 20:32:10;;;;;;;10.82;3.83;;;23.60;74.50;;;;;;6255739;28;88440;-76
2023/04/15 20:35:13;;;;;;;9.50;3.70;;;23.60;79.40;;;;;;6256669;28;88862;-79
2023/04/15 20:38:16;;;;;;;9.85;3.78;;;23.70;78.10;;;;;;6257135;28;89072;-78
2023/04/15 20:41:18;;;;;;;9.82;3.70;;;23.70;77.00;;;;;;6255447;28;88041;-78
2023/04/15 20:44:21;;;;;;;10.43;3.60;;;23.80;76.20;;;;;;6255100;28;89142;-79
2023/04/15 20:47:24;;;;;;;7.90;3.55;;;23.80;76.10;;;;;;6254880;28;89060;-79
2023/04/15 20:50:28;;;;;;;11.55;3.70;;;23.80;75.70;;;;;;6246534;28;89304;-79
2023/04/15 20:53:31;;;;;;;9.15;3.22;;;23.80;75.80;;;;;;6248006;28;89786;-78
2023/04/15 20:56:33;;;;;;;8.70;3.28;;;23.80;75.40;;;;;;6254485;28;87988;-79
2023/04/15 20:59:35;;;;;;;7.65;3.30;;;23.80;75.60;;;;;;6256913;28;89237;-78
2023/04/15 21:02:38;;;;;;;7.45;3.33;;;23.70;75.50;;;;;;6256127;28;89210;-79
2023/04/15 21:05:40;;;;;;;8.30;3.45;;;23.70;75.50;;;;;;6258470;28;88380;-78
2023/04/15 21:08:43;;;;;;;7.82;3.25;;;23.70;75.50;;;;;;6255572;27;89024;-78
2023/04/15 21:11:47;;;;;;;6.55;3.05;;;23.70;75.50;;;;;;6255616;28;89438;-79
2023/04/15 21:14:50;;;;;;;7.53;3.13;;;23.60;75.50;;;;;;6255225;28;90143;-78
2023/04/15 21:17:53;;;;;;;6.13;2.95;;;23.60;75.50;;;;;;6255799;28;89076;-79
2023/04/15 21:20:58;;;;;;;7.85;3.20;;;23.60;75.50;;;;;;6255732;28;88924;-80
2023/04/15 21:24:00;;;;;;;7.70;2.70;;;23.60;75.40;;;;;;6256338;28;89066;-78
2023/04/15 21:27:02;;;;;;;6.90;2.83;;;23.50;75.40;;;;;;6251100;28;88309;-79
2023/04/15 21:30:05;;;;;;;5.20;2.78;;;23.50;75.40;;;;;;6256157;28;88995;-79
2023/04/15 21:33:09;;;;;;;5.63;2.75;;;23.50;75.40;;;;;;6253030;28;88249;-79
2023/04/15 21:36:11;;;;;;;5.10;2.78;;;23.40;75.20;;;;;;6253348;28;88370;-79
2023/04/15 21:39:13;;;;;;;5.13;2.45;;;23.40;75.20;;;;;;6256944;28;89092;-78
2023/04/15 21:42:15;;;;;;;7.85;2.60;;;23.40;75.20;;;;;;6255213;28;88119;-78
2023/04/15 21:45:17;;;;;;;5.63;2.40;;;23.40;75.70;;;;;;6249079;28;90063;-80
2023/04/15 21:48:22;;;;;;;6.03;2.65;;;23.40;75.40;;;;;;6251583;28;89111;-79
2023/04/15 21:51:24;;;;;;;5.00;2.25;;;23.30;75.20;;;;;;6255991;28;89013;-79
2023/04/15 21:54:26;;;;;;;6.43;2.30;;;23.40;75.20;;;;;;6251626;28;89096;-77
2023/04/15 21:57:30;;;;;;;4.43;2.22;;;23.30;75.10;;;;;;6255791;28;90325;-79
2023/04/15 22:00:33;;;;;;;6.47;2.17;;;23.30;75.40;;;;;;6255612;28;89054;-77
2023/04/15 22:03:36;;;;;;;6.00;2.33;;;23.30;76.60;;;;;;6247889;28;89594;-74
2023/04/15 22:06:38;;;;;;;5.43;2.10;;;23.30;75.90;;;;;;6249319;28;89554;-76
2023/04/15 22:09:40;;;;;;;4.85;2.10;;;23.30;75.50;;;;;;6250454;28;89072;-77
2023/04/15 22:12:42;;;;;;;3.25;2.13;;;23.30;75.40;;;;;;6241722;27;89134;-75
2023/04/15 22:15:44;;;;;;;3.90;2.13;;;23.30;75.40;;;;;;6243399;28;90577;-79
2023/04/15 22:18:48;;;;;;;4.55;2.35;;;23.30;75.40;;;;;;6245295;27;91132;-75
2023/04/15 22:21:50;;;;;;;5.90;2.40;;;23.30;75.70;;;;;;6234488;27;89478;-80
2023/04/15 22:24:52;;;;;;;6.22;2.10;;;23.30;75.80;;;;;;6245710;27;89412;-73
2023/04/15 22:27:54;;;;;;;4.60;2.38;;;23.30;75.50;;;;;;6245804;27;89120;-75
2023/04/15 22:30:57;;;;;;;5.32;2.22;;;23.30;75.50;;;;;;6246065;27;89458;-75
2023/04/15 22:34:01;;;;;;;3.55;2.05;;;23.30;75.60;;;;;;6246335;27;89222;-76
2023/04/15 22:37:03;;;;;;;4.97;2.20;;;23.20;75.50;;;;;;6248317;27;88296;-74
2023/04/15 22:40:06;;;;;;;6.22;2.10;;;23.30;75.50;;;;;;6244304;27;89092;-79
2023/04/15 22:43:08;;;;;;;3.95;1.90;;;23.20;75.50;;;;;;6241459;27;88474;-78
2023/04/15 22:46:10;;;;;;;4.90;1.90;;;23.20;75.50;;;;;;6239126;27;90034;-77
2023/04/15 22:49:13;;;;;;;2.75;1.60;;;23.20;75.40;;;;;;6240971;27;89680;-78
2023/04/15 22:52:16;;;;;;;4.40;1.90;;;23.10;74.60;;;;;;6252537;27;89039;-77
2023/04/15 22:55:18;;;;;;;4.30;1.70;;;23.10;74.00;;;;;;6252956;27;88985;-80
2023/04/15 22:58:20;;;;;;;3.88;2.00;;;23.10;74.20;;;;;;6250239;27;89226;-77
2023/04/15 23:01:22;;;;;;;4.80;2.00;;;23.10;74.40;;;;;;6245144;27;89260;-78
2023/04/15 23:04:26;;;;;;;2.78;2.00;;;23.10;74.50;;;;;;6252107;27;88221;-79
2023/04/15 23:07:28;;;;;;;5.60;2.20;;;23.10;74.50;;;;;;6259181;28;88335;-77
2023/04/15 23:10:30;;;;;;;2.92;1.83;;;23.10;74.70;;;;;;6253340;27;89222;-77
2023/04/15 23:13:32;;;;;;;4.78;1.90;;;23.00;74.70;;;;;;6256653;28;89531;-79
2023/04/15 23:16:34;;;;;;;3.28;2.03;;;23.00;74.70;;;;;;6250648;27;88901;-76
2023/04/15 23:19:37;;;;;;;3.17;1.80;;;23.00;74.80;;;;;;6259211;27;88963;-75
2023/04/15 23:22:40;;;;;;;3.20;1.80;;;23.00;74.90;;;;;;6256183;27;89074;-77
2023/04/15 23:25:42;;;;;;;2.78;1.90;;;23.00;74.90;;;;;;6247969;27;89114;-78
2023/04/15 23:28:44;;;;;;;5.18;2.30;;;23.00;75.00;;;;;;6255618;28;88744;-80
2023/04/15 23:31:46;;;;;;;4.18;2.67;;;23.00;76.20;;;;;;6251468;27;87965;-76
2023/04/15 23:34:51;;;;;;;6.88;2.63;;;23.00;75.30;;;;;;6243576;27;89437;-79
2023/04/15 23:37:53;;;;;;;4.20;2.30;;;23.00;74.50;;;;;;6258102;27;88518;-82
2023/04/15 23:40:55;;;;;;;3.03;2.60;;;23.00;74.40;;;;;;6250778;27;88984;-79
2023/04/15 23:43:57;;;;;;;3.60;2.97;;;23.10;75.40;;;;;;6249338;27;89235;-80